Time;durP1;ratioP1;P1;durP2;ratioP2;P2;SDS_P1;SDS_P2;PMS_P1;PMS_P2;Temp;Humidity;BMP_temperature;BMP_pressure;BME280_temperature;BME280_humidity;BME280_pressure;Samples;Min_cycle;Max_cycle;Signal;HPM_P1;HPM_P2
2023/09/09 00:00:39;;;;;;;6.13;3.50;;;;;;;19.10;100.00;98550.16;5071717;28;20176;-56
2023/09/09 00:03:04;;;;;;;4.03;3.30;;;;;;;19.18;100.00;98563.34;5071695;28;20548;-55
2023/09/09 00:05:30;;;;;;;6.63;3.78;;;;;;;19.23;100.00;98563.75;5071753;28;20306;-56
2023/09/09 00:07:55;;;;;;;4.63;3.17;;;;;;;19.28;100.00;98564.91;5071535;28;20291;-56
2023/09/09 00:10:21;;;;;;;3.58;3.08;;;;;;;19.21;100.00;98553.41;5071431;28;20204;-56
2023/09/09 00:12:46;;;;;;;6.75;4.13;;;;;;;19.02;100.00;98537.84;5071461;28;20272;-56
2023/09/09 00:15:12;;;;;;;5.63;3.60;;;;;;;19.16;100.00;98570.53;5071791;28;20176;-56
2023/09/09 00:17:37;;;;;;;6.07;3.53;;;;;;;18.89;100.00;98537.41;5071324;28;20215;-56
2023/09/09 00:20:06;;;;;;;8.07;3.42;;;;;;;18.68;100.00;98530.88;5071359;28;20688;-57
2023/09/09 00:22:31;;;;;;;4.00;3.22;;;;;;;18.87;100.00;98554.28;5071260;28;20607;-57
2023/09/09 00:24:56;;;;;;;4.93;3.05;;;;;;;18.97;100.00;98565.50;5120314;27;20182;-56
2023/09/09 00:27:22;;;;;;;9.80;3.28;;;;;;;18.86;100.00;98577.06;5134650;27;20267;-56
2023/09/09 00:29:47;;;;;;;4.78;3.50;;;;;;;18.74;100.00;98533.72;5134739;27;20167;-56
2023/09/09 00:32:13;;;;;;;3.90;3.50;;;;;;;18.92;100.00;98563.34;5134754;27;20269;-56
2023/09/09 00:34:38;;;;;;;4.25;3.08;;;;;;;18.74;100.00;98538.13;5134183;27;20210;-57
2023/09/09 00:37:03;;;;;;;4.32;3.20;;;;;;;18.89;100.00;98561.00;5134818;27;20177;-56
2023/09/09 00:39:30;;;;;;;6.05;3.28;;;;;;;18.62;100.00;98529.69;5134440;27;20676;-56
2023/09/09 00:41:55;;;;;;;5.60;3.45;;;;;;;18.76;100.00;98575.53;5134579;27;20178;-56
2023/09/09 00:44:20;;;;;;;7.28;3.85;;;;;;;18.66;100.00;98545.94;5134685;27;20624;-56
2023/09/09 00:46:46;;;;;;;6.70;3.05;;;;;;;18.88;100.00;98572.47;5134539;27;20178;-56
2023/09/09 00:49:11;;;;;;;3.40;3.10;;;;;;;18.73;100.00;98541.72;5134483;27;20636;-56
2023/09/09 00:51:37;;;;;;;10.43;3.47;;;;;;;18.61;100.00;98535.91;5134397;27;20194;-56
2023/09/09 00:54:04;;;;;;;3.58;3.28;;;;;;;18.46;100.00;98526.09;5134414;27;20574;-56
2023/09/09 00:56:32;;;;;;;4.35;3.28;;;;;;;18.38;100.00;98518.19;5134324;27;20205;-56
2023/09/09 00:58:58;;;;;;;4.65;3.38;;;;;;;18.40;100.00;98550.28;5134215;27;20637;-56
2023/09/09 01:01:23;;;;;;;8.18;3.08;;;;;;;18.44;100.00;98551.66;5134157;27;20247;-57
2023/09/09 01:03:52;;;;;;;8.07;3.35;;;;;;;18.20;100.00;98530.44;5133860;27;20170;-56
2023/09/09 01:06:20;;;;;;;4.78;3.45;;;;;;;18.39;100.00;98564.38;5134084;27;20204;-56
2023/09/09 01:08:46;;;;;;;4.03;3.40;;;;;;;18.02;100.00;98540.88;5134165;27;20219;-55
2023/09/09 01:11:11;;;;;;;6.85;3.85;;;;;;;18.12;100.00;98533.78;5133635;27;20297;-55
2023/09/09 01:13:37;;;;;;;7.78;3.35;;;;;;;18.09;100.00;98530.66;5134028;27;20166;-56
2023/09/09 01:16:02;;;;;;;5.10;3.17;;;;;;;17.97;100.00;98516.13;5133954;27;20201;-55
2023/09/09 01:18:28;;;;;;;4.80;3.30;;;;;;;18.09;100.00;98533.28;5133949;27;20174;-55
2023/09/09 01:21:02;;;;;;;4.15;3.35;;;;;;;18.18;100.00;98521.91;5133501;27;20182;-56
2023/09/09 01:23:28;;;;;;;3.72;3.30;;;;;;;18.15;100.00;98535.28;5133901;27;20174;-56
2023/09/09 01:25:53;;;;;;;5.07;3.72;;;;;;;17.89;100.00;98519.47;5133786;27;20484;-56
2023/09/09 01:28:22;;;;;;;5.43;3.30;;;;;;;18.22;100.00;98536.34;5133701;27;20665;-56
2023/09/09 01:30:50;;;;;;;4.28;3.88;;;;;;;18.25;100.00;98530.81;5133529;27;20214;-56
2023/09/09 01:33:16;;;;;;;4.20;3.28;;;;;;;18.20;100.00;98519.97;5133567;27;20612;-56
2023/09/09 01:35:41;;;;;;;5.97;3.13;;;;;;;18.22;100.00;98526.69;5133308;27;20178;-56
2023/09/09 01:38:06;;;;;;;4.82;3.50;;;;;;;18.27;100.00;98534.94;5133787;27;20166;-56
2023/09/09 01:40:32;;;;;;;4.30;3.08;;;;;;;18.53;100.00;98540.28;5133537;27;20708;-56
2023/09/09 01:42:57;;;;;;;7.10;3.53;;;;;;;18.52;100.00;98534.19;5133463;27;20166;-56
2023/09/09 01:45:23;;;;;;;3.33;2.95;;;;;;;18.44;100.00;98530.69;5133432;27;20270;-56
2023/09/09 01:47:48;;;;;;;3.83;3.42;;;;;;;18.23;100.00;98522.25;5133350;27;20281;-56
2023/09/09 01:50:14;;;;;;;4.13;3.72;;;;;;;18.45;100.00;98558.53;5133196;27;20198;-56
2023/09/09 01:52:39;;;;;;;4.22;2.90;;;;;;;18.30;100.00;98525.94;5133252;27;20166;-56
2023/09/09 01:55:05;;;;;;;3.33;3.00;;;;;;;18.24;100.00;98529.97;5133219;27;20175;-56
2023/09/09 01:57:30;;;;;;;4.32;2.60;;;;;;;18.27;100.00;98555.88;5132823;27;20163;-57
2023/09/09 01:59:57;;;;;;;4.47;3.17;;;;;;;18.28;100.00;98527.88;5133097;27;20628;-57
2023/09/09 02:02:22;;;;;;;3.30;3.00;;;;;;;18.32;100.00;98521.41;5132998;27;20270;-57
2023/09/09 02:04:48;;;;;;;8.90;2.88;;;;;;;18.71;100.00;98551.56;5132973;27;20182;-57
2023/09/09 02:07:13;;;;;;;8.38;3.15;;;;;;;18.64;100.00;98519.03;5132978;27;20170;-56
2023/09/09 02:09:39;;;;;;;5.57;2.67;;;;;;;18.55;100.00;98522.59;5132844;27;20271;-57
2023/09/09 02:12:05;;;;;;;4.65;3.17;;;;;;;18.46;100.00;98536.59;5132834;27;20218;-57
2023/09/09 02:14:31;;;;;;;7.97;3.70;;;;;;;18.35;100.00;98510.63;5132586;27;20597;-57
2023/09/09 02:16:56;;;;;;;3.65;3.22;;;;;;;18.56;100.00;98539.94;5132318;27;20663;-57
2023/09/09 02:19:22;;;;;;;5.13;3.05;;;;;;;18.46;100.00;98523.47;5132744;27;20167;-57
2023/09/09 02:21:48;;;;;;;3.60;2.75;;;;;;;18.54;100.00;98532.22;5132690;27;20285;-57
2023/09/09 02:24:14;;;;;;;6.03;3.20;;;;;;;18.61;100.00;98542.94;5132944;27;20181;-57
2023/09/09 02:26:39;;;;;;;5.05;3.05;;;;;;;18.45;100.00;98521.84;5132586;27;20224;-56
2023/09/09 02:29:04;;;;;;;8.50;3.05;;;;;;;18.63;100.00;98520.00;5132586;27;20166;-56
2023/09/09 02:31:30;;;;;;;6.75;3.25;;;;;;;18.69;100.00;98540.38;5132583;27;20627;-57
2023/09/09 02:33:55;;;;;;;5.65;3.10;;;;;;;18.55;100.00;98512.09;5132499;27;20223;-56
2023/09/09 02:36:21;;;;;;;3.35;3.03;;;;;;;18.59;100.00;98516.88;5132749;27;20171;-57
2023/09/09 02:38:46;;;;;;;5.20;2.85;;;;;;;18.60;100.00;98531.63;5132438;27;20202;-55
2023/09/09 02:41:12;;;;;;;4.88;3.03;;;;;;;18.52;100.00;98522.88;5132044;27;20599;-57
2023/09/09 02:43:37;;;;;;;5.90;3.42;;;;;;;18.54;100.00;98531.44;5131924;27;20212;-55
2023/09/09 02:46:04;;;;;;;4.53;3.40;;;;;;;18.58;100.00;98548.47;5132242;27;20178;-55
2023/09/09 02:48:30;;;;;;;3.72;3.42;;;;;;;18.54;100.00;98544.53;5132229;27;20197;-55
2023/09/09 02:50:55;;;;;;;8.27;2.85;;;;;;;18.46;100.00;98534.78;5132081;27;20198;-56
2023/09/09 02:53:21;;;;;;;5.72;3.60;;;;;;;18.33;100.00;98507.31;5132117;27;20170;-56
2023/09/09 02:55:47;;;;;;;5.15;3.63;;;;;;;18.15;100.00;98516.97;5132036;27;20171;-56
2023/09/09 02:58:14;;;;;;;6.68;2.67;;;;;;;18.17;100.00;98523.69;5132059;27;20177;-56
2023/09/09 03:00:40;;;;;;;3.13;2.47;;;;;;;18.04;100.00;98551.22;5132018;27;20170;-56
2023/09/09 03:03:05;;;;;;;4.45;2.85;;;;;;;17.78;100.00;98545.84;5131937;27;20182;-55
2023/09/09 03:05:37;;;;;;;4.38;2.60;;;;;;;17.82;100.00;98546.38;5132011;27;20171;-56
2023/09/09 03:08:05;;;;;;;3.78;2.75;;;;;;;17.57;100.00;98513.91;5131988;27;20257;-56
2023/09/09 03:10:31;;;;;;;4.07;2.50;;;;;;;17.71;100.00;98542.19;5131438;27;20216;-56
2023/09/09 03:12:57;;;;;;;5.45;2.47;;;;;;;17.57;100.00;98523.53;5131587;27;20265;-56
2023/09/09 03:15:25;;;;;;;3.00;2.58;;;;;;;17.59;100.00;98529.44;5131507;28;20170;-56
2023/09/09 03:17:51;;;;;;;3.03;2.65;;;;;;;17.49;100.00;98515.59;5131799;28;20174;-55
2023/09/09 03:20:16;;;;;;;7.28;2.60;;;;;;;17.40;100.00;98535.59;5131583;28;20242;-56
2023/09/09 03:22:42;;;;;;;5.63;2.80;;;;;;;17.44;100.00;98528.28;5131503;28;20178;-56
2023/09/09 03:25:08;;;;;;;7.47;3.35;;;;;;;17.13;100.00;98487.66;5131737;28;20174;-56
2023/09/09 03:27:34;;;;;;;4.63;3.10;;;;;;;17.21;100.00;98522.53;5134562;27;20189;-56
2023/09/09 03:29:59;;;;;;;4.20;2.97;;;;;;;17.26;100.00;98525.56;5136002;27;20249;-55
2023/09/09 03:32:28;;;;;;;3.47;3.00;;;;;;;16.92;100.00;98515.78;5136058;27;20257;-56
2023/09/09 03:34:53;;;;;;;5.10;3.05;;;;;;;16.70;100.00;98495.19;5135962;27;20651;-56
2023/09/09 03:37:21;;;;;;;3.35;3.08;;;;;;;16.86;100.00;98522.38;5135894;27;20174;-56
2023/09/09 03:39:47;;;;;;;3.83;2.92;;;;;;;16.87;100.00;98520.59;5135919;27;20253;-56
2023/09/09 03:42:12;;;;;;;3.67;2.58;;;;;;;16.75;100.00;98499.06;5135751;27;20261;-56
2023/09/09 03:44:38;;;;;;;8.38;2.83;;;;;;;16.87;100.00;98536.28;5135669;27;20198;-56
2023/09/09 03:47:03;;;;;;;4.03;2.90;;;;;;;16.83;100.00;98529.69;5135681;27;20215;-56
2023/09/09 03:49:29;;;;;;;9.15;2.80;;;;;;;16.84;100.00;98511.25;5092034;28;20669;-56
2023/09/09 03:51:55;;;;;;;3.33;2.70;;;;;;;16.92;100.00;98540.09;5092127;28;20211;-56
2023/09/09 03:54:21;;;;;;;3.55;2.70;;;;;;;16.78;100.00;98539.72;5092095;28;20228;-56
2023/09/09 03:56:46;;;;;;;3.60;2.13;;;;;;;16.50;100.00;98519.72;5092024;28;20176;-56
2023/09/09 03:59:11;;;;;;;5.75;2.78;;;;;;;16.46;100.00;98523.56;5092080;28;20180;-56
2023/09/09 04:01:37;;;;;;;4.13;2.63;;;;;;;16.70;100.00;98537.84;5091975;28;20277;-56
2023/09/09 04:04:02;;;;;;;3.60;2.75;;;;;;;16.85;100.00;98538.22;5091936;28;20188;-56
2023/09/09 04:06:28;;;;;;;4.68;2.70;;;;;;;16.80;99.31;98506.47;5092279;28;20746;-56
2023/09/09 04:08:56;;;;;;;2.85;2.65;;;;;;;17.02;100.00;98504.31;5091815;28;20183;-56
2023/09/09 04:11:22;;;;;;;4.32;2.50;;;;;;;17.21;99.47;98540.03;5091659;28;20255;-55
2023/09/09 04:13:48;;;;;;;5.40;3.17;;;;;;;17.09;98.15;98499.34;5091757;28;20724;-55
2023/09/09 04:16:13;;;;;;;3.92;2.30;;;;;;;17.17;94.46;98515.13;5092020;28;20292;-56
2023/09/09 04:18:39;;;;;;;4.03;2.50;;;;;;;17.33;94.32;98520.59;5091728;28;20252;-55
2023/09/09 04:21:04;;;;;;;6.07;2.53;;;;;;;17.42;92.89;98524.97;5124061;27;20239;-55
2023/09/09 04:23:29;;;;;;;3.10;2.38;;;;;;;17.58;91.84;98551.34;5134704;27;20216;-55
2023/09/09 04:25:55;;;;;;;2.53;2.13;;;;;;;17.55;91.87;98525.47;5134940;27;20178;-55
2023/09/09 04:28:20;;;;;;;6.22;2.63;;;;;;;17.76;94.26;98553.03;5134844;27;20535;-55
2023/09/09 04:30:46;;;;;;;8.18;2.60;;;;;;;17.62;93.28;98511.69;5134760;27;20285;-55
2023/09/09 04:33:11;;;;;;;6.53;2.67;;;;;;;17.63;94.04;98538.66;5134474;27;20174;-55
2023/09/09 04:35:41;;;;;;;5.25;2.53;;;;;;;17.71;93.27;98550.03;5134749;27;20175;-56
2023/09/09 04:38:07;;;;;;;3.42;2.72;;;;;;;17.58;93.04;98528.63;5133983;27;20173;-55
2023/09/09 04:40:33;;;;;;;5.80;3.90;;;;;;;17.74;91.70;98547.16;5134427;27;20178;-55
2023/09/09 04:42:58;;;;;;;2.80;2.60;;;;;;;17.83;93.09;98541.00;5134585;27;20167;-56
2023/09/09 04:45:24;;;;;;;3.08;2.78;;;;;;;17.70;93.11;98503.06;5134826;27;20167;-56
2023/09/09 04:47:51;;;;;;;4.93;3.22;;;;;;;17.64;94.45;98501.88;5134473;27;20259;-56
2023/09/09 04:50:20;;;;;;;4.20;2.60;;;;;;;17.72;95.61;98509.81;5134367;27;20202;-55
2023/09/09 04:52:46;;;;;;;5.47;2.55;;;;;;;17.59;94.27;98484.94;5134398;27;20167;-55
2023/09/09 04:55:12;;;;;;;5.18;2.60;;;;;;;17.76;90.46;98519.00;5134395;27;20171;-56
2023/09/09 04:57:38;;;;;;;6.75;3.17;;;;;;;17.81;91.39;98523.81;5134354;27;20166;-56
2023/09/09 05:00:07;;;;;;;4.57;2.38;;;;;;;17.63;90.44;98489.75;5134017;27;20612;-55
2023/09/09 05:02:37;;;;;;;3.35;2.97;;;;;;;17.77;93.34;98509.38;5090671;28;20245;-56
2023/09/09 05:05:04;;;;;;;3.63;2.78;;;;;;;17.75;94.73;98511.31;5091099;28;20192;-57
2023/09/09 05:07:36;;;;;;;5.90;2.80;;;;;;;17.86;93.77;98526.81;5090684;28;20642;-56
2023/09/09 05:10:04;;;;;;;6.88;3.38;;;;;;;17.87;93.24;98533.69;5090565;28;20218;-57
2023/09/09 05:12:30;;;;;;;2.60;2.33;;;;;;;17.80;87.21;98525.63;5090560;28;20183;-56
2023/09/09 05:14:55;;;;;;;3.35;2.75;;;;;;;17.92;90.32;98528.84;5090508;28;20199;-56
2023/09/09 05:17:21;;;;;;;4.32;2.97;;;;;;;18.07;89.60;98535.22;5090610;28;20180;-56
2023/09/09 05:19:46;;;;;;;3.08;2.55;;;;;;;18.00;89.19;98515.81;5090524;28;20219;-56
2023/09/09 05:22:11;;;;;;;3.67;2.90;;;;;;;17.98;89.72;98526.47;5090486;28;20275;-56
2023/09/09 05:24:37;;;;;;;3.78;2.45;;;;;;;18.01;89.76;98513.06;5090446;28;20279;-55
2023/09/09 05:27:03;;;;;;;3.55;2.58;;;;;;;18.13;88.75;98506.63;5090690;28;20268;-56
2023/09/09 05:29:28;;;;;;;5.32;2.92;;;;;;;18.26;87.43;98529.84;5090409;28;20244;-56
2023/09/09 05:31:53;;;;;;;3.03;2.22;;;;;;;18.10;86.16;98496.47;5090241;28;20223;-56
2023/09/09 05:34:19;;;;;;;6.75;2.92;;;;;;;18.23;86.04;98511.78;5126048;27;20264;-55
2023/09/09 05:36:44;;;;;;;4.45;2.55;;;;;;;18.28;86.22;98530.50;5133632;27;20221;-56
2023/09/09 05:39:09;;;;;;;8.30;2.80;;;;;;;18.24;86.85;98526.56;5133552;27;20219;-56
2023/09/09 05:41:35;;;;;;;5.93;3.10;;;;;;;18.26;86.82;98533.28;5133605;27;20205;-56
2023/09/09 05:44:00;;;;;;;5.05;2.75;;;;;;;18.07;86.44;98506.41;5133516;27;20183;-56
2023/09/09 05:46:25;;;;;;;8.48;3.03;;;;;;;18.22;86.23;98505.75;5133346;27;20220;-56
2023/09/09 05:48:51;;;;;;;3.53;3.08;;;;;;;18.36;85.48;98525.38;5133306;27;20231;-56
2023/09/09 05:51:17;;;;;;;5.85;2.35;;;;;;;18.66;83.70;98551.19;5132212;27;20198;-56
2023/09/09 05:53:42;;;;;;;5.47;2.53;;;;;;;18.59;82.99;98535.22;5133216;27;20175;-56
2023/09/09 05:56:08;;;;;;;5.43;2.60;;;;;;;18.71;82.33;98539.25;5133257;27;20162;-56
2023/09/09 05:58:35;;;;;;;2.28;2.17;;;;;;;18.61;82.07;98514.13;5133126;27;20206;-56
2023/09/09 06:01:01;;;;;;;5.65;2.95;;;;;;;18.77;81.02;98532.59;5133143;27;20182;-56
2023/09/09 06:03:26;;;;;;;3.72;2.20;;;;;;;18.94;80.33;98539.59;5133062;27;20231;-56
2023/09/09 06:05:52;;;;;;;4.22;2.45;;;;;;;19.14;78.61;98556.75;5132996;27;20202;-56
2023/09/09 06:08:18;;;;;;;3.05;2.50;;;;;;;19.34;77.47;98558.22;5133301;27;20189;-56
2023/09/09 06:10:43;;;;;;;7.15;2.42;;;;;;;19.15;77.47;98521.69;5132914;27;20198;-56
2023/09/09 06:13:08;;;;;;;5.60;2.40;;;;;;;19.27;76.74;98526.53;5132750;27;20174;-56
2023/09/09 06:15:34;;;;;;;3.28;2.30;;;;;;;19.23;75.91;98524.41;5132549;27;20177;-56
2023/09/09 06:18:00;;;;;;;3.25;2.90;;;;;;;19.53;75.96;98547.50;5132666;27;20625;-56
2023/09/09 06:20:26;;;;;;;3.38;2.58;;;;;;;19.58;74.88;98526.84;5132746;27;20177;-56
2023/09/09 06:22:51;;;;;;;3.35;2.38;;;;;;;19.62;74.20;98525.53;5069230;28;20201;-56
2023/09/09 06:25:17;;;;;;;5.90;2.75;;;;;;;19.71;73.60;98532.47;5068931;28;20290;-56
2023/09/09 06:27:44;;;;;;;2.95;2.17;;;;;;;19.71;72.92;98520.16;5068987;28;20559;-56
2023/09/09 06:30:10;;;;;;;5.43;2.20;;;;;;;19.79;73.05;98532.50;5068933;28;20185;-56
2023/09/09 06:32:36;;;;;;;2.92;2.60;;;;;;;20.12;72.06;98558.72;5068846;28;20181;-56
2023/09/09 06:35:02;;;;;;;5.70;2.70;;;;;;;20.13;71.58;98551.66;5068874;28;20176;-56
2023/09/09 06:37:28;;;;;;;3.30;2.15;;;;;;;20.14;70.97;98553.28;5068793;28;20539;-56
2023/09/09 06:39:53;;;;;;;4.22;2.67;;;;;;;20.37;70.00;98572.72;5068843;28;20192;-56
2023/09/09 06:42:18;;;;;;;4.28;2.70;;;;;;;20.32;69.17;98567.97;5068770;28;20570;-56
2023/09/09 06:44:44;;;;;;;3.90;2.70;;;;;;;20.41;69.67;98555.66;5068705;28;20169;-57
2023/09/09 06:47:11;;;;;;;2.30;2.10;;;;;;;20.42;68.70;98541.50;5068745;28;20331;-57
2023/09/09 06:49:36;;;;;;;6.68;3.08;;;;;;;20.75;68.32;98572.09;5068298;28;20199;-55
2023/09/09 06:52:02;;;;;;;5.78;2.25;;;;;;;20.66;66.67;98549.41;5068194;28;20216;-55
2023/09/09 06:54:27;;;;;;;8.45;2.38;;;;;;;20.78;65.78;98550.72;5116826;27;20178;-56
2023/09/09 06:56:53;;;;;;;7.32;2.75;;;;;;;20.88;65.65;98547.00;5129501;27;20221;-56
2023/09/09 06:59:18;;;;;;;6.50;2.58;;;;;;;20.83;65.32;98544.00;5111622;28;20198;-56
2023/09/09 07:01:44;;;;;;;3.08;2.50;;;;;;;21.04;65.29;98559.28;5111234;28;20179;-56
2023/09/09 07:04:09;;;;;;;7.53;2.50;;;;;;;21.33;66.06;98570.91;5111510;28;20170;-57
2023/09/09 07:06:34;;;;;;;4.72;2.75;;;;;;;21.41;66.10;98552.47;5068382;28;20596;-57
2023/09/09 07:09:00;;;;;;;2.58;2.20;;;;;;;21.58;64.50;98563.75;5068290;28;20203;-56
2023/09/09 07:11:25;;;;;;;2.67;2.25;;;;;;;21.66;63.31;98547.91;5068365;28;20322;-56
2023/09/09 07:13:55;;;;;;;5.10;2.20;;;;;;;21.79;62.40;98556.16;5068315;28;20210;-56
2023/09/09 07:16:21;;;;;;;3.47;2.42;;;;;;;21.79;62.77;98546.41;5068420;28;20184;-56
2023/09/09 07:18:47;;;;;;;3.38;2.58;;;;;;;22.14;63.35;98572.25;5068320;28;20188;-56
2023/09/09 07:21:12;;;;;;;8.73;2.80;;;;;;;22.13;63.37;98543.41;5068390;28;20277;-56
2023/09/09 07:23:37;;;;;;;3.53;3.03;;;;;;;22.41;63.86;98573.56;5068259;28;20677;-56
2023/09/09 07:26:03;;;;;;;3.63;3.03;;;;;;;22.40;64.62;98556.09;5068295;28;20280;-56
2023/09/09 07:28:28;;;;;;;5.90;3.65;;;;;;;22.46;65.26;98550.16;5068224;28;20180;-56
2023/09/09 07:30:54;;;;;;;10.43;3.30;;;;;;;22.83;65.24;98589.75;5068070;28;20631;-56
2023/09/09 07:33:19;;;;;;;9.70;4.50;;;;;;;22.96;67.40;98585.53;5068214;28;20192;-56
2023/09/09 07:35:45;;;;;;;8.05;4.15;;;;;;;23.01;68.06;98569.19;5068181;28;20226;-55
2023/09/09 07:38:10;;;;;;;6.72;4.10;;;;;;;23.16;68.80;98581.41;5100136;28;20288;-56
2023/09/09 07:40:36;;;;;;;5.63;3.70;;;;;;;23.17;68.53;98571.69;5111141;28;20170;-56
2023/09/09 07:43:02;;;;;;;5.30;3.67;;;;;;;23.19;68.92;98553.84;5111099;28;20175;-55
2023/09/09 07:45:28;;;;;;;8.00;3.67;;;;;;;23.23;68.95;98540.09;5111107;28;20227;-56
2023/09/09 07:47:53;;;;;;;10.57;4.32;;;;;;;23.39;69.01;98552.31;5110926;28;20179;-56
2023/09/09 07:50:19;;;;;;;8.30;3.65;;;;;;;23.42;67.88;98550.13;5110970;28;20197;-56
2023/09/09 07:52:44;;;;;;;4.97;3.38;;;;;;;23.47;64.54;98541.63;5110928;28;20553;-56
2023/09/09 07:55:10;;;;;;;9.20;3.83;;;;;;;23.63;64.81;98558.13;5110869;28;20175;-56
2023/09/09 07:57:35;;;;;;;5.88;3.67;;;;;;;23.62;64.01;98550.38;5110955;28;20175;-56
2023/09/09 08:00:01;;;;;;;6.90;3.28;;;;;;;23.68;61.73;98546.00;5110942;28;20197;-56
2023/09/09 08:02:27;;;;;;;6.13;3.08;;;;;;;23.92;60.14;98574.78;5110782;28;20196;-56
2023/09/09 08:04:52;;;;;;;4.57;2.67;;;;;;;23.85;57.65;98558.00;5110845;28;20637;-56
2023/09/09 08:07:18;;;;;;;9.23;2.90;;;;;;;24.00;53.87;98573.06;5110847;28;20626;-56
2023/09/09 08:09:46;;;;;;;5.95;2.70;;;;;;;24.09;53.99;98586.81;5109846;28;20222;-56
2023/09/09 08:12:15;;;;;;;3.38;2.85;;;;;;;24.24;53.35;98590.25;5110736;28;20260;-56
2023/09/09 08:14:42;;;;;;;8.40;3.20;;;;;;;24.27;53.71;98575.84;5113456;28;20176;-56
2023/09/09 08:17:07;;;;;;;6.35;3.25;;;;;;;24.18;53.73;98553.13;5114573;28;20221;-56
2023/09/09 08:19:33;;;;;;;9.93;2.20;;;;;;;24.43;48.00;98587.00;5114547;28;20171;-56
2023/09/09 08:21:58;;;;;;;2.85;2.20;;;;;;;24.32;49.29;98563.66;5114443;28;20637;-56
2023/09/09 08:24:23;;;;;;;6.07;2.80;;;;;;;24.52;51.56;98577.94;5114079;28;20231;-57
2023/09/09 08:26:49;;;;;;;10.05;2.83;;;;;;;24.65;52.34;98591.31;5114322;28;20214;-56
2023/09/09 08:29:14;;;;;;;8.68;2.83;;;;;;;24.58;50.00;98572.94;5114170;28;20206;-56
2023/09/09 08:31:41;;;;;;;2.53;2.00;;;;;;;24.56;46.02;98565.16;5113959;28;20253;-56
2023/09/09 08:34:06;;;;;;;2.97;2.30;;;;;;;24.69;43.86;98579.34;5114145;28;20168;-56
2023/09/09 08:36:32;;;;;;;5.40;2.38;;;;;;;24.66;44.27;98571.78;5114133;28;20244;-56
2023/09/09 08:38:59;;;;;;;5.68;2.80;;;;;;;24.83;45.02;98594.34;5114094;28;20186;-56
2023/09/09 08:41:56;;;;;;;5.68;3.03;;;;;;;24.80;46.26;98583.31;5114121;28;20175;-56
2023/09/09 08:44:44;;;;;;;3.75;2.75;;;;;;;24.78;45.89;98580.06;5113921;28;20183;-56
2023/09/09 08:47:10;;;;;;;5.05;2.63;;;;;;;24.65;45.89;98548.16;5113974;28;20182;-56
2023/09/09 08:49:36;;;;;;;6.35;3.10;;;;;;;24.87;45.43;98582.38;5113929;28;20261;-56
2023/09/09 08:52:06;;;;;;;4.43;2.20;;;;;;;24.65;45.00;98545.50;5113817;28;20207;-56
2023/09/09 08:54:32;;;;;;;4.75;2.60;;;;;;;24.69;45.94;98544.94;5114202;28;20178;-56
2023/09/09 08:56:59;;;;;;;5.47;2.78;;;;;;;24.83;47.08;98570.50;5113886;28;20179;-56
2023/09/09 08:59:25;;;;;;;8.30;3.25;;;;;;;24.83;46.77;98570.50;5113643;28;20185;-56
2023/09/09 09:01:51;;;;;;;7.47;2.70;;;;;;;24.93;46.24;98578.13;5113653;28;20294;-56
2023/09/09 09:04:17;;;;;;;4.70;2.80;;;;;;;24.76;45.41;98563.53;5113453;28;20178;-56
2023/09/09 09:06:47;;;;;;;3.75;2.28;;;;;;;24.89;45.79;98580.34;5113320;28;20252;-55
2023/09/09 09:09:12;;;;;;;3.20;2.15;;;;;;;24.83;45.39;98567.03;5113486;28;20171;-56
2023/09/09 09:11:37;;;;;;;4.53;2.45;;;;;;;24.87;43.63;98550.59;5113347;28;20302;-56
2023/09/09 09:14:07;;;;;;;5.75;2.05;;;;;;;24.94;42.13;98583.25;5113429;28;20171;-56
2023/09/09 09:16:37;;;;;;;6.22;2.38;;;;;;;24.76;42.34;98547.63;5113423;28;20179;-56
2023/09/09 09:19:03;;;;;;;5.28;2.30;;;;;;;25.00;40.76;98582.47;5113522;28;20216;-56
2023/09/09 09:21:34;;;;;;;4.30;1.95;;;;;;;25.10;41.45;98576.84;5113372;28;20183;-55
2023/09/09 09:24:01;;;;;;;9.45;2.40;;;;;;;25.05;40.45;98574.78;5113480;28;20178;-55
2023/09/09 09:26:27;;;;;;;3.67;2.45;;;;;;;25.12;40.70;98570.34;5113114;28;20649;-56
2023/09/09 09:28:53;;;;;;;3.38;2.22;;;;;;;25.21;39.90;98563.91;5113209;28;20244;-55
2023/09/09 09:31:20;;;;;;;6.20;2.15;;;;;;;25.18;38.65;98543.09;5112974;28;20384;-55
2023/09/09 09:33:47;;;;;;;2.92;2.05;;;;;;;25.04;38.28;98562.56;5113105;28;20181;-55
2023/09/09 09:36:16;;;;;;;7.82;2.63;;;;;;;24.98;40.57;98571.25;5112987;28;20175;-55
2023/09/09 09:38:41;;;;;;;6.82;2.67;;;;;;;25.08;40.83;98578.88;5113269;28;20168;-56
2023/09/09 09:41:09;;;;;;;4.28;2.28;;;;;;;24.87;40.99;98555.06;5113052;28;20247;-56
2023/09/09 09:43:34;;;;;;;3.60;1.85;;;;;;;24.86;40.79;98543.69;5112868;28;20549;-56
2023/09/09 09:46:17;;;;;;;7.22;2.28;;;;;;;25.15;40.72;98567.31;5112783;28;20174;-56
2023/09/09 09:48:43;;;;;;;3.95;2.13;;;;;;;25.33;41.12;98558.91;5112804;28;20175;-55
2023/09/09 09:51:08;;;;;;;6.82;2.35;;;;;;;25.42;40.63;98561.19;5112367;28;20700;-56
2023/09/09 09:53:49;;;;;;;10.13;2.20;;;;;;;25.30;40.94;98520.38;5112900;28;20167;-55
2023/09/09 09:56:15;;;;;;;4.88;2.53;;;;;;;25.70;39.64;98556.66;5112702;28;20224;-55
2023/09/09 09:58:43;;;;;;;4.43;2.38;;;;;;;25.70;38.64;98556.66;5112631;28;20204;-56
2023/09/09 10:01:10;;;;;;;4.05;2.20;;;;;;;25.51;38.59;98543.31;5112566;28;20178;-55
2023/09/09 10:03:47;;;;;;;4.75;2.40;;;;;;;25.67;37.69;98546.44;5112500;28;20620;-55
2023/09/09 10:06:18;;;;;;;5.68;2.67;;;;;;;25.45;37.43;98528.19;5112530;28;20191;-56
2023/09/09 10:08:55;;;;;;;5.03;2.38;;;;;;;25.41;38.05;98511.88;5112525;28;20171;-56
2023/09/09 10:11:27;;;;;;;5.10;2.47;;;;;;;25.77;38.56;98538.16;5112133;28;20206;-56
2023/09/09 10:14:02;;;;;;;7.65;2.35;;;;;;;25.50;37.04;98521.31;5069085;28;20569;-56
2023/09/09 10:16:29;;;;;;;4.28;2.22;;;;;;;25.69;36.99;98544.44;5069188;28;20214;-56
2023/09/09 10:18:57;;;;;;;5.47;3.10;;;;;;;25.79;37.46;98539.59;5069022;28;20185;-56
2023/09/09 10:21:24;;;;;;;5.68;2.10;;;;;;;25.97;37.66;98529.28;5069122;28;20185;-56
2023/09/09 10:23:50;;;;;;;4.00;2.28;;;;;;;25.84;36.85;98509.81;5068995;28;20246;-56
2023/09/09 10:26:17;;;;;;;2.65;2.30;;;;;;;26.18;36.29;98536.28;5069080;28;20301;-56
2023/09/09 10:28:44;;;;;;;6.50;2.53;;;;;;;26.32;35.80;98520.19;5068922;28;20221;-56
2023/09/09 10:31:13;;;;;;;5.93;2.05;;;;;;;26.56;34.24;98513.50;5068839;28;20236;-56
2023/09/09 10:33:42;;;;;;;2.00;1.90;;;;;;;26.65;34.54;98496.38;5068683;28;20203;-56
2023/09/09 10:36:08;;;;;;;3.50;2.17;;;;;;;26.91;33.06;98529.06;5068507;28;20705;-55
2023/09/09 10:38:33;;;;;;;3.70;1.90;;;;;;;26.86;33.14;98499.63;5068737;28;20222;-55
2023/09/09 10:41:00;;;;;;;6.40;2.08;;;;;;;27.09;33.38;98515.94;5068865;28;20600;-56
2023/09/09 10:43:25;;;;;;;9.77;2.40;;;;;;;27.09;33.69;98505.31;5068751;28;20211;-55
2023/09/09 10:45:50;;;;;;;5.25;2.38;;;;;;;27.46;34.39;98531.22;5107328;28;20665;-55
2023/09/09 10:48:21;;;;;;;5.70;2.47;;;;;;;27.52;34.10;98521.63;5111965;28;20231;-56
2023/09/09 10:50:49;;;;;;;3.50;1.90;;;;;;;27.56;33.21;98496.22;5111591;28;20211;-56
2023/09/09 10:53:16;;;;;;;4.95;2.38;;;;;;;27.36;33.56;98506.94;5111639;28;20171;-56
2023/09/09 10:55:42;;;;;;;7.07;2.83;;;;;;;27.37;34.08;98497.94;5111584;28;20182;-56
2023/09/09 10:58:09;;;;;;;8.10;2.38;;;;;;;27.60;33.21;98516.91;5111675;28;20172;-56
2023/09/09 11:00:43;;;;;;;5.15;2.08;;;;;;;27.79;34.64;98516.03;5111233;28;20551;-56
2023/09/09 11:03:17;;;;;;;5.38;2.70;;;;;;;27.89;33.63;98492.47;5111239;28;20644;-56
2023/09/09 11:06:07;;;;;;;6.15;1.90;;;;;;;28.10;34.39;98510.75;5111480;28;20301;-56
2023/09/09 11:08:42;;;;;;;4.78;2.30;;;;;;;28.32;32.59;98514.72;5111410;28;20170;-56
2023/09/09 11:11:08;;;;;;;3.63;2.10;;;;;;;28.42;32.69;98504.44;5111438;28;20206;-56
2023/09/09 11:13:52;;;;;;;4.05;2.15;;;;;;;28.48;32.13;98505.41;5111033;28;20171;-56
2023/09/09 11:16:24;;;;;;;9.00;2.13;;;;;;;28.33;32.30;98486.25;5111289;28;20243;-56
2023/09/09 11:18:51;;;;;;;3.50;2.05;;;;;;;28.52;32.50;98478.13;5111326;28;20581;-56
2023/09/09 11:21:20;;;;;;;3.75;1.88;;;;;;;28.57;31.52;98470.31;5111211;28;20190;-56
2023/09/09 11:23:47;;;;;;;2.35;2.00;;;;;;;28.74;30.95;98462.63;5110887;28;20620;-56
2023/09/09 11:26:14;;;;;;;4.97;1.75;;;;;;;29.15;28.73;98494.84;5111290;28;20171;-56